Time;durP1;ratioP1;P1;durP2;ratioP2;P2;SDS_P1;SDS_P2;PMS_P1;PMS_P2;Temp;Humidity;BMP_temperature;BMP_pressure;BME280_temperature;BME280_humidity;BME280_pressure;Samples;Min_cycle;Max_cycle;Signal;HPM_P1;HPM_P2
2023/08/29 00:01:41;;;;;;;2.65;1.35;;;;;;;27.09;42.89;98229.41;4806165;29;20282;-89
2023/08/29 00:04:06;;;;;;;3.58;1.30;;;;;;;26.96;42.95;98217.81;4790368;29;20226;-89
2023/08/29 00:06:31;;;;;;;4.13;1.80;;;;;;;26.89;42.65;98223.19;4790186;29;20187;-88
2023/08/29 00:08:58;;;;;;;3.05;1.35;;;;;;;26.76;42.68;98223.13;4805952;29;20373;-88
2023/08/29 00:11:25;;;;;;;3.37;1.60;;;;;;;26.71;43.01;98220.25;4806023;29;20194;-88
2023/08/29 00:13:52;;;;;;;3.85;1.40;;;;;;;26.73;43.32;98218.16;4806391;29;20186;-88
2023/08/29 00:16:19;;;;;;;3.10;1.60;;;;;;;26.67;43.24;98213.63;4805959;29;20214;-89
2023/08/29 00:18:46;;;;;;;5.93;2.10;;;;;;;26.52;43.59;98218.38;4790894;29;20193;-88
2023/08/29 00:21:12;;;;;;;3.25;1.48;;;;;;;26.48;43.72;98219.78;4805914;29;20622;-88
2023/08/29 00:23:39;;;;;;;10.57;2.08;;;;;;;26.49;44.13;98219.59;4805801;29;20507;-88
2023/08/29 00:26:05;;;;;;;3.28;1.42;;;;;;;26.49;43.87;98216.09;4805648;29;20209;-88
2023/08/29 00:28:32;;;;;;;2.50;1.30;;;;;;;26.45;43.81;98217.50;4806156;29;20694;-88
2023/08/29 00:30:58;;;;;;;6.82;2.08;;;;;;;26.36;43.62;98224.13;4798929;29;20195;-88
2023/08/29 00:33:25;;;;;;;3.37;1.50;;;;;;;26.24;44.03;98219.31;4787954;30;20189;-88
2023/08/29 00:35:51;;;;;;;3.13;1.50;;;;;;;26.07;44.34;98223.34;4791658;29;20194;-88
2023/08/29 00:38:18;;;;;;;3.58;1.15;;;;;;;26.01;44.75;98224.16;4805839;29;20623;-88
2023/08/29 00:40:45;;;;;;;3.38;1.70;;;;;;;25.81;44.79;98223.25;4804865;29;20545;-89
2023/08/29 00:43:11;;;;;;;4.60;1.90;;;;;;;25.74;44.89;98227.75;4805511;29;20272;-89
2023/08/29 00:45:39;;;;;;;6.97;2.38;;;;;;;25.74;44.87;98230.41;4805793;29;20196;-89
2023/08/29 00:48:08;;;;;;;4.85;1.58;;;;;;;25.80;44.72;98228.81;4805574;29;20617;-88
2023/08/29 00:50:35;;;;;;;4.13;1.55;;;;;;;25.87;44.84;98233.19;4805562;29;20230;-88
2023/08/29 00:53:04;;;;;;;3.25;1.63;;;;;;;25.90;44.82;98229.25;4805708;29;20191;-88
2023/08/29 00:55:31;;;;;;;7.30;1.87;;;;;;;25.83;44.91;98223.03;4808196;29;20182;-88
2023/08/29 00:57:59;;;;;;;6.60;2.33;;;;;;;25.80;44.92;98229.63;4793139;29;20194;-88
2023/08/29 01:00:27;;;;;;;5.10;2.20;;;;;;;25.76;45.48;98230.25;4809094;29;20269;-88
2023/08/29 01:02:54;;;;;;;4.00;1.80;;;;;;;25.71;45.45;98222.75;4809355;29;20183;-89
2023/08/29 01:05:21;;;;;;;6.20;1.50;;;;;;;25.70;45.53;98223.81;4809236;29;20246;-89
2023/08/29 01:07:53;;;;;;;5.43;1.97;;;;;;;25.64;45.63;98222.75;4808984;29;20214;-88
2023/08/29 01:11:07;;;;;;;3.37;1.50;;;;;;;25.53;45.75;98222.44;4791090;30;20237;-88
2023/08/29 01:13:51;;;;;;;3.83;1.87;;;;;;;25.43;45.94;98224.63;4773964;30;20206;-89
2023/08/29 01:16:22;;;;;;;3.43;1.60;;;;;;;25.53;45.96;98211.72;4791027;30;20194;-88
2023/08/29 01:18:52;;;;;;;4.53;1.77;;;;;;;25.59;46.31;98214.47;4791152;30;20175;-88
2023/08/29 01:21:53;;;;;;;5.70;1.77;;;;;;;25.57;46.23;98208.47;4790752;30;20208;-88
2023/08/29 01:24:58;;;;;;;4.50;1.70;;;;;;;25.50;46.25;98206.75;4789452;29;20572;-88
2023/08/29 01:27:26;;;;;;;3.67;1.57;;;;;;;25.43;46.17;98204.00;4767318;30;20549;-88
2023/08/29 01:29:55;;;;;;;3.63;1.80;;;;;;;25.48;46.09;98203.44;4789694;30;20191;-88
2023/08/29 01:32:23;;;;;;;3.70;1.87;;;;;;;25.57;46.09;98199.59;4805005;29;20194;-88
2023/08/29 01:34:51;;;;;;;4.10;1.70;;;;;;;25.64;45.95;98201.28;4808557;29;20704;-88
2023/08/29 01:37:18;;;;;;;4.30;1.67;;;;;;;25.68;46.19;98190.97;4808337;29;20638;-88
2023/08/29 01:39:43;;;;;;;4.03;1.60;;;;;;;25.64;46.27;98198.59;4808738;29;20676;-88
2023/08/29 01:42:09;;;;;;;3.90;1.67;;;;;;;25.60;46.65;98186.56;4808286;29;20187;-88
2023/08/29 01:44:35;;;;;;;3.97;1.83;;;;;;;25.54;46.91;98191.91;4808332;29;20631;-88
2023/08/29 01:47:01;;;;;;;4.40;1.70;;;;;;;25.49;47.36;98191.69;4808824;29;20225;-88
2023/08/29 01:49:27;;;;;;;3.60;1.77;;;;;;;25.43;47.19;98192.44;4808189;29;20653;-88
2023/08/29 01:51:54;;;;;;;2.57;1.40;;;;;;;25.35;47.17;98189.91;4808263;29;20201;-88
2023/08/29 01:54:20;;;;;;;4.37;1.87;;;;;;;25.32;47.23;98184.94;4808277;29;20637;-88
2023/08/29 01:56:49;;;;;;;4.67;1.80;;;;;;;25.31;47.36;98183.28;4808568;29;20194;-88
2023/08/29 01:59:14;;;;;;;4.20;1.90;;;;;;;25.34;47.75;98182.91;4808729;29;20190;-88
2023/08/29 02:01:41;;;;;;;3.10;1.43;;;;;;;25.31;48.04;98183.28;4792163;29;20190;-88
2023/08/29 02:04:08;;;;;;;4.20;1.53;;;;;;;25.16;48.35;98179.91;4792151;29;20215;-88
2023/08/29 02:06:34;;;;;;;3.43;2.10;;;;;;;25.06;48.56;98177.53;4807646;29;20630;-88
2023/08/29 02:09:01;;;;;;;4.67;1.90;;;;;;;24.97;49.67;98178.72;4807949;29;20183;-88
2023/08/29 02:11:28;;;;;;;4.27;1.73;;;;;;;24.85;50.43;98178.41;4808473;29;20187;-88
2023/08/29 02:13:54;;;;;;;5.63;1.83;;;;;;;24.89;50.27;98178.88;4807723;29;20197;-88
2023/08/29 02:16:21;;;;;;;10.67;1.77;;;;;;;24.94;49.80;98179.94;4808614;29;20606;-88
2023/08/29 02:18:47;;;;;;;3.83;1.90;;;;;;;24.94;49.19;98169.22;4807836;29;20183;-88
2023/08/29 02:21:14;;;;;;;3.10;1.53;;;;;;;24.88;49.02;98167.31;4791782;29;20190;-88
2023/08/29 02:23:40;;;;;;;5.57;2.10;;;;;;;24.88;48.74;98163.78;4807941;29;20213;-88
2023/08/29 02:26:07;;;;;;;4.63;1.80;;;;;;;24.81;48.99;98166.44;4807602;29;20186;-88
2023/08/29 02:28:36;;;;;;;3.87;1.73;;;;;;;24.79;49.33;98162.28;4807669;29;20269;-88
2023/08/29 02:31:07;;;;;;;5.53;1.57;;;;;;;24.72;49.96;98161.34;4807579;29;20179;-88
2023/08/29 02:33:38;;;;;;;3.43;1.67;;;;;;;24.61;50.78;98168.06;4806547;29;20213;-88
2023/08/29 02:36:05;;;;;;;4.33;2.07;;;;;;;24.63;50.50;98170.56;4807573;29;20184;-87
2023/08/29 02:38:32;;;;;;;5.57;1.80;;;;;;;24.66;50.67;98184.38;4807836;29;20193;-88
2023/08/29 02:40:59;;;;;;;8.00;2.13;;;;;;;24.65;50.68;98177.38;4807741;29;20179;-88
2023/08/29 02:43:27;;;;;;;3.80;1.73;;;;;;;24.65;50.41;98181.91;4807625;29;20182;-88
2023/08/29 02:45:53;;;;;;;5.10;1.80;;;;;;;24.54;50.64;98180.56;4806558;29;20250;-88
2023/08/29 02:48:20;;;;;;;5.73;1.90;;;;;;;24.43;51.31;98181.09;4806142;29;20201;-89
2023/08/29 02:50:50;;;;;;;5.00;2.13;;;;;;;24.37;51.88;98177.31;4806283;29;20559;-88
2023/08/29 02:53:17;;;;;;;3.00;1.77;;;;;;;24.26;52.55;98177.00;4807572;29;20186;-89
2023/08/29 02:55:44;;;;;;;3.80;1.47;;;;;;;24.16;53.18;98176.50;4807188;29;20621;-89
2023/08/29 02:58:11;;;;;;;3.07;1.57;;;;;;;24.13;53.18;98183.06;4791148;29;20186;-88
2023/08/29 03:00:37;;;;;;;4.50;1.77;;;;;;;24.03;53.98;98170.97;4807393;29;20186;-89
2023/08/29 03:03:04;;;;;;;5.60;2.03;;;;;;;23.96;54.00;98168.19;4806922;29;20218;-88
2023/08/29 03:05:31;;;;;;;5.43;2.23;;;;;;;23.93;54.23;98168.56;4807006;29;20313;-88
2023/08/29 03:07:57;;;;;;;4.13;2.00;;;;;;;23.96;53.61;98170.03;4807522;29;20606;-88
2023/08/29 03:10:25;;;;;;;7.70;2.13;;;;;;;24.03;53.04;98170.97;4806780;29;20187;-87
2023/08/29 03:12:51;;;;;;;7.07;2.20;;;;;;;24.00;52.39;98169.50;4790926;29;20563;-88
2023/08/29 03:15:18;;;;;;;5.47;2.10;;;;;;;23.87;53.08;98172.00;4807324;29;20202;-88
2023/08/29 03:17:45;;;;;;;4.50;2.10;;;;;;;23.69;54.48;98171.56;4806726;29;20182;-88
2023/08/29 03:20:12;;;;;;;7.77;1.80;;;;;;;23.53;55.33;98175.25;4806885;29;20202;-88
2023/08/29 03:22:38;;;;;;;11.23;2.87;;;;;;;23.53;55.33;98177.94;4807003;29;20194;-87
2023/08/29 03:25:05;;;;;;;4.30;2.10;;;;;;;23.67;54.60;98182.44;4806847;29;20297;-88
2023/08/29 03:27:31;;;;;;;4.03;2.07;;;;;;;23.63;54.68;98188.38;4806666;29;20186;-88
2023/08/29 03:29:58;;;;;;;8.53;2.13;;;;;;;23.68;54.26;98181.44;4806652;29;20198;-88
2023/08/29 03:32:24;;;;;;;5.60;2.13;;;;;;;23.70;54.34;98175.91;4806483;29;20190;-88
2023/08/29 03:34:54;;;;;;;6.03;2.33;;;;;;;23.59;54.06;98179.88;4806555;29;20220;-88
2023/08/29 03:37:21;;;;;;;9.97;2.13;;;;;;;23.63;54.17;98175.84;4805039;29;20560;-88
2023/08/29 03:39:46;;;;;;;5.40;2.00;;;;;;;23.68;53.47;98177.94;4806464;29;20189;-88
2023/08/29 03:42:13;;;;;;;5.60;2.30;;;;;;;23.68;52.98;98172.59;4806644;29;20570;-88
2023/08/29 03:44:40;;;;;;;4.23;2.07;;;;;;;23.60;53.49;98186.06;4806264;29;20251;-88
2023/08/29 03:47:07;;;;;;;8.20;2.50;;;;;;;23.55;53.86;98180.44;4806318;29;20277;-88
2023/08/29 03:49:32;;;;;;;4.20;2.10;;;;;;;23.52;53.90;98184.31;4806365;29;20697;-88
2023/08/29 03:51:59;;;;;;;4.43;2.20;;;;;;;23.51;54.66;98193.34;4806117;29;20198;-88
2023/08/29 03:54:25;;;;;;;3.60;2.00;;;;;;;23.49;54.29;98189.19;4806795;29;20182;-87
2023/08/29 03:56:52;;;;;;;4.53;2.23;;;;;;;23.40;54.82;98185.78;4806216;29;20190;-88
2023/08/29 03:59:18;;;;;;;6.87;2.20;;;;;;;23.37;54.69;98182.66;4805567;29;20228;-88
2023/08/29 04:01:44;;;;;;;9.13;2.20;;;;;;;23.29;55.47;98178.22;4806130;29;20175;-88
2023/08/29 04:04:10;;;;;;;5.10;2.23;;;;;;;23.24;55.73;98177.94;4806130;29;20214;-88
2023/08/29 04:06:36;;;;;;;4.27;2.23;;;;;;;23.24;55.71;98180.59;4806114;29;20710;-88
2023/08/29 04:09:03;;;;;;;5.33;2.00;;;;;;;23.18;56.39;98171.47;4806068;29;20186;-88
2023/08/29 04:11:30;;;;;;;7.10;2.17;;;;;;;23.12;56.68;98172.19;4806343;29;20190;-88
2023/08/29 04:13:59;;;;;;;4.07;1.83;;;;;;;23.13;56.99;98178.38;4790571;29;20186;-88
2023/08/29 04:16:24;;;;;;;5.90;2.43;;;;;;;23.16;57.29;98172.66;4805083;29;20629;-88
2023/08/29 04:18:51;;;;;;;3.50;2.03;;;;;;;23.20;57.29;98168.59;4805593;29;20191;-88
2023/08/29 04:21:16;;;;;;;7.70;2.03;;;;;;;23.31;57.00;98167.31;4805334;29;20202;-88
2023/08/29 04:23:42;;;;;;;5.50;2.27;;;;;;;23.31;58.02;98162.78;4798079;29;20219;-88
2023/08/29 04:26:08;;;;;;;5.10;2.57;;;;;;;23.35;57.62;98166.75;4788148;30;20183;-87
2023/08/29 04:28:35;;;;;;;5.33;2.50;;;;;;;23.40;57.75;98169.72;4789168;29;20605;-88
2023/08/29 04:31:11;;;;;;;5.93;2.73;;;;;;;23.49;57.91;98162.44;4807590;29;20186;-88
2023/08/29 04:33:37;;;;;;;5.40;2.20;;;;;;;23.57;57.44;98165.88;4793779;29;20190;-88
2023/08/29 04:36:04;;;;;;;6.93;2.10;;;;;;;23.69;57.18;98159.00;4809784;29;20182;-88
2023/08/29 04:38:31;;;;;;;4.20;2.60;;;;;;;23.79;56.86;98145.34;4809425;29;20281;-88
2023/08/29 04:40:58;;;;;;;4.77;2.07;;;;;;;23.94;56.57;98150.66;4809440;29;20182;-88
2023/08/29 04:43:26;;;;;;;4.60;2.50;;;;;;;24.07;57.07;98150.81;4809940;29;20187;-87
2023/08/29 04:45:52;;;;;;;4.10;2.07;;;;;;;24.32;56.24;98149.44;4809587;29;20182;-88
2023/08/29 04:48:19;;;;;;;3.90;2.07;;;;;;;24.57;55.45;98141.84;4809856;29;20633;-88
2023/08/29 04:50:45;;;;;;;5.43;2.30;;;;;;;24.67;55.20;98145.84;4809242;29;20198;-88
2023/08/29 04:53:12;;;;;;;5.80;2.60;;;;;;;24.75;54.96;98145.72;4793328;29;20247;-88
2023/08/29 04:55:38;;;;;;;4.67;2.67;;;;;;;24.81;54.27;98136.94;4809061;29;20622;-88
2023/08/29 04:58:05;;;;;;;4.67;2.50;;;;;;;24.90;53.89;98141.13;4809010;29;20190;-88
2023/08/29 05:00:31;;;;;;;7.20;2.77;;;;;;;25.04;53.16;98134.00;4793213;29;20186;-88
2023/08/29 05:02:58;;;;;;;7.20;2.37;;;;;;;25.16;52.74;98136.97;4809112;29;20246;-88
2023/08/29 05:05:25;;;;;;;6.13;2.53;;;;;;;25.24;52.71;98134.13;4809007;29;20665;-88
2023/08/29 05:07:50;;;;;;;5.17;2.70;;;;;;;25.32;54.05;98139.31;4808962;29;20255;-88
2023/08/29 05:10:17;;;;;;;4.00;2.30;;;;;;;25.33;53.05;98139.16;4808944;29;20633;-88
2023/08/29 05:12:44;;;;;;;5.63;2.40;;;;;;;25.37;53.37;98136.88;4793033;29;20195;-87
2023/08/29 05:15:11;;;;;;;5.23;2.40;;;;;;;25.51;52.56;98130.59;4781526;30;20198;-88
2023/08/29 05:17:36;;;;;;;7.37;2.53;;;;;;;25.76;52.83;98141.66;4796895;29;20724;-88
2023/08/29 05:20:05;;;;;;;6.77;2.77;;;;;;;25.97;51.69;98147.69;4792627;29;20195;-87
2023/08/29 05:22:32;;;;;;;8.27;2.17;;;;;;;26.16;50.60;98146.13;4808695;29;20344;-88
2023/08/29 05:24:58;;;;;;;6.10;2.47;;;;;;;26.44;50.28;98143.31;4792459;29;20680;-88
2023/08/29 05:27:25;;;;;;;5.93;2.37;;;;;;;26.62;50.33;98146.22;4792540;29;20273;-88
2023/08/29 05:29:53;;;;;;;7.53;2.73;;;;;;;26.79;49.17;98151.00;4809018;29;20186;-88
2023/08/29 05:32:20;;;;;;;5.37;2.50;;;;;;;27.05;49.36;98162.75;4792698;29;20213;-88
2023/08/29 05:34:47;;;;;;;4.33;2.20;;;;;;;27.30;47.95;98172.69;4808554;29;20194;-88
2023/08/29 05:37:13;;;;;;;8.90;2.47;;;;;;;27.53;47.68;98166.03;4807083;29;20641;-88
2023/08/29 05:39:40;;;;;;;4.23;2.50;;;;;;;27.73;47.04;98166.78;4806132;29;20197;-88
2023/08/29 05:42:07;;;;;;;6.15;2.10;;;;;;;27.80;45.26;98175.69;4789680;29;20243;-88
2023/08/29 05:44:34;;;;;;;3.90;2.28;;;;;;;27.84;45.05;98171.50;4788425;30;20211;-88
2023/08/29 05:47:00;;;;;;;4.82;2.30;;;;;;;27.75;44.78;98178.97;4788502;30;20187;-88
2023/08/29 05:49:26;;;;;;;7.72;2.40;;;;;;;27.83;44.60;98181.44;4788372;29;20214;-88
2023/08/29 05:51:51;;;;;;;9.43;2.63;;;;;;;27.90;44.86;98179.56;4789432;30;20547;-88
2023/08/29 05:54:18;;;;;;;6.53;2.38;;;;;;;28.01;44.04;98180.78;4790558;30;20179;-88
2023/08/29 05:56:45;;;;;;;7.43;2.67;;;;;;;28.24;43.77;98174.88;4801463;29;20182;-88
2023/08/29 05:59:12;;;;;;;4.70;2.35;;;;;;;28.43;44.34;98182.81;4808187;29;20255;-88
2023/08/29 06:01:37;;;;;;;8.88;2.90;;;;;;;28.63;43.70;98172.78;4808462;29;20191;-88
2023/08/29 06:04:04;;;;;;;8.40;2.78;;;;;;;28.90;43.06;98168.00;4808054;29;20213;-88
2023/08/29 06:06:31;;;;;;;5.63;2.80;;;;;;;29.21;42.28;98156.34;4795348;29;20286;-89
2023/08/29 06:08:57;;;;;;;5.55;2.72;;;;;;;29.57;41.98;98160.94;4804189;29;20198;-88
2023/08/29 06:11:25;;;;;;;5.65;2.38;;;;;;;29.75;41.08;98160.94;4801228;29;20202;-88
2023/08/29 06:13:51;;;;;;;7.90;2.75;;;;;;;29.94;40.50;98150.97;4790620;29;20637;-89
2023/08/29 06:16:18;;;;;;;10.60;2.72;;;;;;;30.18;40.28;98161.66;4789639;29;20277;-88
2023/08/29 06:18:43;;;;;;;8.02;2.40;;;;;;;30.45;40.04;98156.75;4791104;29;20270;-89
2023/08/29 06:21:12;;;;;;;5.05;2.30;;;;;;;30.73;39.22;98151.50;4807633;29;20190;-88
2023/08/29 06:23:38;;;;;;;7.78;2.40;;;;;;;31.08;38.61;98158.88;4791769;29;20569;-88
2023/08/29 06:26:05;;;;;;;8.20;2.92;;;;;;;31.39;38.58;98158.50;4794211;29;20226;-87
2023/08/29 06:28:33;;;;;;;4.95;2.50;;;;;;;31.82;37.59;98149.94;4795847;29;20194;-88
2023/08/29 06:31:08;;;;;;;8.52;2.60;;;;;;;32.18;37.46;98150.44;4807545;29;20205;-88
2023/08/29 06:33:36;;;;;;;6.18;2.20;;;;;;;32.45;34.50;98144.41;4791489;29;20712;-88
2023/08/29 06:36:03;;;;;;;9.40;2.20;;;;;;;32.35;36.13;98152.38;4791410;29;20645;-88
2023/08/29 06:38:30;;;;;;;7.88;2.90;;;;;;;32.77;34.31;98142.84;4807189;29;20194;-88
2023/08/29 06:40:58;;;;;;;6.05;2.20;;;;;;;33.20;35.38;98136.78;4791642;29;20626;-87
2023/08/29 06:43:25;;;;;;;14.45;2.35;;;;;;;33.49;33.59;98140.16;4791323;29;20645;-87
2023/08/29 06:45:50;;;;;;;6.47;2.65;;;;;;;33.53;33.20;98139.41;4807257;29;20221;-88
2023/08/29 06:48:18;;;;;;;7.68;2.05;;;;;;;33.53;33.33;98155.72;4807161;29;20227;-88
2023/08/29 06:50:47;;;;;;;3.80;2.00;;;;;;;33.90;33.09;98150.50;4806871;29;20249;-88
2023/08/29 06:53:14;;;;;;;6.95;2.15;;;;;;;34.08;32.83;98143.94;4805214;29;20190;-88
2023/08/29 06:55:39;;;;;;;6.50;2.42;;;;;;;34.08;32.09;98133.88;4807085;29;20182;-89
2023/08/29 06:58:06;;;;;;;7.95;2.88;;;;;;;34.34;31.82;98138.53;4791044;29;20197;-88
2023/08/29 07:00:33;;;;;;;5.18;2.00;;;;;;;34.46;30.54;98147.34;4806608;29;20190;-88
2023/08/29 07:03:01;;;;;;;5.10;2.03;;;;;;;34.69;32.26;98150.84;4806969;29;20190;-88
2023/08/29 07:05:28;;;;;;;4.68;2.10;;;;;;;35.12;30.47;98150.69;4806773;29;20218;-89
2023/08/29 07:07:55;;;;;;;4.05;2.10;;;;;;;35.26;30.62;98140.97;4806803;29;20296;-88
2023/08/29 07:10:26;;;;;;;6.32;2.17;;;;;;;35.62;31.27;98145.56;4806666;29;20186;-88
2023/08/29 07:12:52;;;;;;;5.43;2.05;;;;;;;35.89;29.21;98139.13;4807045;29;20186;-90
2023/08/29 07:15:19;;;;;;;5.15;1.60;;;;;;;35.99;28.79;98141.88;4806783;29;20178;-89
2023/08/29 07:17:45;;;;;;;4.63;1.70;;;;;;;36.02;27.86;98139.50;4806724;29;20193;-88
2023/08/29 07:20:11;;;;;;;3.60;1.80;;;;;;;36.04;28.29;98142.75;4806681;29;20209;-89
2023/08/29 07:22:41;;;;;;;4.20;1.90;;;;;;;36.02;27.06;98144.13;4806154;29;20182;-89
2023/08/29 07:25:07;;;;;;;6.25;2.17;;;;;;;36.01;26.86;98139.78;4806567;29;20217;-89
2023/08/29 07:27:34;;;;;;;7.30;1.83;;;;;;;36.06;27.38;98139.78;4790387;29;20190;-88
2023/08/29 07:30:01;;;;;;;7.57;1.50;;;;;;;36.22;28.75;98134.06;4806700;29;20251;-88
2023/08/29 07:32:26;;;;;;;3.20;1.65;;;;;;;36.40;28.16;98129.22;4806732;29;20269;-89
2023/08/29 07:34:52;;;;;;;5.70;1.55;;;;;;;36.57;26.59;98129.78;4806582;29;20289;-89
2023/08/29 07:37:17;;;;;;;3.58;1.80;;;;;;;36.56;27.47;98134.44;4790488;29;20189;-89
2023/08/29 07:39:44;;;;;;;4.95;1.80;;;;;;;36.71;27.50;98126.28;4806335;29;20179;-89
2023/08/29 07:42:10;;;;;;;3.75;1.42;;;;;;;36.85;26.50;98126.50;4806292;29;20640;-88
2023/08/29 07:44:35;;;;;;;3.45;1.60;;;;;;;36.93;25.55;98128.69;4806156;29;20206;-89
2023/08/29 07:47:02;;;;;;;2.55;1.17;;;;;;;37.07;26.56;98123.53;4804684;29;20546;-88
2023/08/29 07:49:27;;;;;;;4.50;1.90;;;;;;;37.18;25.93;98109.59;4804386;29;20183;-88
2023/08/29 07:51:54;;;;;;;5.30;1.83;;;;;;;37.18;25.64;98103.28;4804579;29;20211;-89
2023/08/29 07:54:21;;;;;;;4.95;1.98;;;;;;;37.20;27.05;98099.19;4804527;29;20174;-88
2023/08/29 07:56:47;;;;;;;5.57;2.20;;;;;;;37.15;26.57;98103.84;4804570;29;20625;-89
2023/08/29 07:59:14;;;;;;;3.65;1.48;;;;;;;37.27;27.12;98101.63;4805403;29;20271;-89
2023/08/29 08:01:42;;;;;;;5.20;1.70;;;;;;;37.43;27.02;98103.25;4805480;29;20191;-89
2023/08/29 08:04:09;;;;;;;4.65;2.38;;;;;;;37.39;26.28;98099.41;4805820;29;20210;-89
2023/08/29 08:06:34;;;;;;;4.95;2.38;;;;;;;37.50;27.80;98098.31;4806685;29;20186;-89
2023/08/29 08:09:03;;;;;;;5.82;3.20;;;;;;;37.65;27.63;98101.00;4806435;29;20197;-89
2023/08/29 08:11:30;;;;;;;5.07;2.50;;;;;;;37.79;26.53;98093.78;4806101;29;20302;-89
2023/08/29 08:13:57;;;;;;;4.75;2.47;;;;;;;37.87;26.05;98090.50;4790144;29;20187;-88
2023/08/29 08:16:23;;;;;;;8.52;3.33;;;;;;;37.67;26.00;98084.28;4790138;29;20231;-89
2023/08/29 08:18:50;;;;;;;6.18;3.05;;;;;;;37.81;27.98;98082.59;4806229;29;20190;-89
2023/08/29 08:21:18;;;;;;;8.30;3.78;;;;;;;37.86;27.57;98088.88;4806277;29;20570;-89
2023/08/29 08:23:45;;;;;;;6.82;3.53;;;;;;;37.87;27.25;98093.25;4805759;29;20214;-88
2023/08/29 08:26:12;;;;;;;6.95;3.50;;;;;;;37.96;28.05;98088.84;4806216;29;20692;-89
2023/08/29 08:28:37;;;;;;;7.05;5.07;;;;;;;38.12;28.00;98084.91;4789164;29;20191;-88
2023/08/29 08:31:06;;;;;;;5.40;3.10;;;;;;;38.14;27.99;98082.69;4787893;30;20183;-89
2023/08/29 08:33:33;;;;;;;8.18;3.53;;;;;;;38.10;27.50;98075.34;4787683;30;20234;-89
2023/08/29 08:35:59;;;;;;;7.47;3.20;;;;;;;37.97;26.99;98073.25;4786746;30;20217;-89
2023/08/29 08:38:24;;;;;;;5.15;2.90;;;;;;;38.22;28.03;98064.03;4771832;30;20199;-89
2023/08/29 08:40:54;;;;;;;8.50;2.75;;;;;;;38.38;28.11;98057.38;4787494;30;20276;-88
2023/08/29 08:43:19;;;;;;;5.88;2.70;;;;;;;38.56;27.83;98056.66;4787692;30;20256;-88
2023/08/29 08:45:45;;;;;;;5.88;3.00;;;;;;;38.47;27.39;98050.19;4787880;30;20672;-87
2023/08/29 08:48:10;;;;;;;6.32;3.38;;;;;;;38.47;27.13;98045.50;4787037;30;20187;-89
2023/08/29 08:50:36;;;;;;;7.32;3.17;;;;;;;38.63;26.29;98048.94;4771612;30;20242;-88
2023/08/29 08:53:02;;;;;;;5.72;3.22;;;;;;;38.45;26.58;98041.44;4787644;30;20189;-89
2023/08/29 08:55:31;;;;;;;7.07;3.15;;;;;;;38.40;26.95;98049.69;4787568;29;20227;-90
2023/08/29 08:57:57;;;;;;;7.80;3.67;;;;;;;38.47;26.85;98039.25;4787559;30;20187;-88
2023/08/29 09:00:24;;;;;;;11.15;3.22;;;;;;;38.02;26.98;98030.25;4802114;29;20611;-89
2023/08/29 09:02:52;;;;;;;7.80;3.47;;;;;;;38.10;27.03;98020.59;4801583;29;20201;-90
2023/08/29 09:05:20;;;;;;;7.45;2.85;;;;;;;38.24;27.20;98023.50;4800130;29;20287;-89
2023/08/29 09:07:47;;;;;;;6.78;3.47;;;;;;;38.26;27.30;98024.03;4805600;29;20194;-89
2023/08/29 09:10:15;;;;;;;5.50;3.22;;;;;;;38.35;27.73;98025.09;4805600;29;20186;-90
2023/08/29 09:12:57;;;;;;;5.43;3.25;;;;;;;38.18;26.54;98024.66;4805307;29;20187;-89
2023/08/29 09:15:26;;;;;;;8.55;3.63;;;;;;;38.04;27.21;98019.81;4806136;29;20198;-88
2023/08/29 09:17:54;;;;;;;6.22;3.40;;;;;;;38.03;27.16;98015.44;4793407;29;20187;-89
2023/08/29 09:20:21;;;;;;;7.53;3.08;;;;;;;38.11;27.06;98009.34;4808658;29;20197;-88
2023/08/29 09:22:48;;;;;;;5.30;2.70;;;;;;;38.13;26.76;98015.34;4808551;29;20255;-90
2023/08/29 09:25:14;;;;;;;5.28;2.65;;;;;;;38.04;26.76;98014.34;4808750;29;20217;-89
2023/08/29 09:27:44;;;;;;;5.57;2.70;;;;;;;37.73;26.95;98004.66;4813260;29;20190;-89
2023/08/29 09:30:15;;;;;;;4.90;2.53;;;;;;;37.81;27.78;98008.72;4810061;29;20174;-89
2023/08/29 09:32:43;;;;;;;6.32;2.70;;;;;;;37.78;26.72;98009.28;4806939;29;20629;-89
2023/08/29 09:35:13;;;;;;;6.28;2.47;;;;;;;37.96;26.34;98004.00;4807583;29;20223;-88
2023/08/29 09:37:50;;;;;;;4.25;2.80;;;;;;;37.87;27.57;98002.94;4807615;29;20183;-89
2023/08/29 09:40:18;;;;;;;5.28;3.03;;;;;;;37.65;27.21;98002.53;4791794;29;20182;-89
2023/08/29 09:43:04;;;;;;;7.00;3.50;;;;;;;37.76;27.79;97993.16;4807368;29;20266;-89
2023/08/29 09:45:31;;;;;;;5.78;2.58;;;;;;;37.99;26.46;98002.63;4807944;29;20743;-89
2023/08/29 09:48:02;;;;;;;6.13;3.58;;;;;;;38.12;27.52;97994.59;4807783;29;20529;-88
2023/08/29 09:50:30;;;;;;;4.70;2.63;;;;;;;38.53;27.20;97995.06;4808205;29;20677;-89
2023/08/29 09:52:56;;;;;;;8.45;3.72;;;;;;;38.79;26.03;97998.41;4808618;29;20213;-89
2023/08/29 09:55:25;;;;;;;4.45;2.10;;;;;;;38.40;25.92;97995.75;4790173;30;20248;-90
2023/08/29 09:57:53;;;;;;;4.93;1.85;;;;;;;38.35;25.99;97987.56;4790196;30;20694;-89
2023/08/29 10:00:22;;;;;;;4.78;2.80;;;;;;;38.75;25.86;97991.88;4794077;29;20194;-89
2023/08/29 10:02:50;;;;;;;4.00;2.50;;;;;;;38.57;25.33;97985.19;4799521;29;20277;-90
2023/08/29 10:05:21;;;;;;;5.53;2.53;;;;;;;38.36;25.57;97980.19;4782125;30;20219;-89
2023/08/29 10:07:51;;;;;;;8.23;2.47;;;;;;;38.06;26.84;97984.78;4806081;29;20178;-88
2023/08/29 10:16:58;;;;;;;5.47;2.78;;;;;;;38.63;26.93;97961.28;4804381;29;20191;-89
2023/08/29 10:19:28;;;;;;;4.43;2.13;;;;;;;38.98;24.59;97960.09;4808399;29;20544;-89
2023/08/29 10:21:55;;;;;;;9.40;3.03;;;;;;;39.16;25.14;97953.84;4807766;29;20189;-89
2023/08/29 10:24:22;;;;;;;3.65;1.90;;;;;;;39.34;24.18;97955.84;4807650;29;20657;-89
2023/08/29 10:26:49;;;;;;;3.75;2.10;;;;;;;39.36;23.27;97955.56;4807543;29;20179;-88
2023/08/29 10:29:17;;;;;;;4.47;1.92;;;;;;;39.48;24.00;97948.53;4807874;29;20207;-89
2023/08/29 10:31:45;;;;;;;6.35;2.05;;;;;;;39.54;24.64;97944.59;4808201;29;20204;-89
2023/08/29 10:34:13;;;;;;;6.43;2.38;;;;;;;39.32;24.07;97936.13;4807598;29;20175;-89
2023/08/29 10:36:40;;;;;;;4.88;2.40;;;;;;;39.43;23.74;97936.81;4807643;29;20236;-88
2023/08/29 10:39:09;;;;;;;5.78;2.15;;;;;;;39.50;23.96;97926.28;4806604;29;20292;-90
2023/08/29 10:41:48;;;;;;;3.97;1.88;;;;;;;39.75;24.14;97940.47;4808008;29;20186;-90
2023/08/29 10:44:32;;;;;;;3.67;1.80;;;;;;;40.08;23.64;97927.63;4807658;29;20267;-89
2023/08/29 10:47:26;;;;;;;5.00;1.95;;;;;;;40.23;23.34;97930.09;4807696;29;20177;-87
2023/08/29 10:49:59;;;;;;;3.40;1.70;;;;;;;40.35;23.64;97933.19;4807658;29;20252;-88
2023/08/29 10:52:46;;;;;;;5.32;1.83;;;;;;;40.09;23.35;97918.28;4807863;29;20182;-89
2023/08/29 10:55:18;;;;;;;5.82;2.25;;;;;;;40.35;23.54;97915.91;4807576;29;20169;-89
2023/08/29 10:57:44;;;;;;;8.32;2.08;;;;;;;40.52;22.47;97913.41;4807286;29;20187;-90
2023/08/29 11:00:38;;;;;;;3.70;1.88;;;;;;;40.63;22.07;97912.09;4807015;29;20279;-88
2023/08/29 11:03:05;;;;;;;3.65;1.85;;;;;;;40.56;22.26;97899.88;4794534;29;20261;-88
2023/08/29 11:05:32;;;;;;;6.03;2.53;;;;;;;40.71;22.59;97899.56;4807282;29;20202;-88
2023/08/29 11:08:22;;;;;;;5.18;1.70;;;;;;;40.78;22.23;97905.50;4807062;29;20200;-88
2023/08/29 11:11:24;;;;;;;5.05;2.30;;;;;;;40.34;22.77;97898.59;4806968;29;20167;-88
2023/08/29 11:14:08;;;;;;;4.30;2.10;;;;;;;40.16;22.77;97902.22;4700487;30;20275;-90
2023/08/29 11:16:39;;;;;;;8.00;2.35;;;;;;;40.32;23.07;97894.53;4784366;29;20202;-88
2023/08/29 11:19:05;;;;;;;5.55;2.17;;;;;;;40.26;22.64;97895.72;4807024;29;20265;-90
2023/08/29 11:21:33;;;;;;;4.85;1.88;;;;;;;40.02;23.24;97895.84;4807020;29;20178;-89
2023/08/29 11:23:59;;;;;;;5.70;1.90;;;;;;;40.18;22.74;97897.22;4806650;29;20213;-89
2023/08/29 11:26:28;;;;;;;3.92;2.00;;;;;;;40.39;22.61;97892.19;4806798;29;20255;-88
2023/08/29 11:28:55;;;;;;;3.80;2.00;;;;;;;40.50;22.96;97885.41;4807202;29;20183;-89
2023/08/29 11:31:21;;;;;;;3.88;1.83;;;;;;;40.63;22.46;97878.28;4806886;29;20261;-89
2023/08/29 11:33:48;;;;;;;3.40;2.00;;;;;;;40.77;23.00;97874.44;4806434;29;20222;-89
2023/08/29 11:36:15;;;;;;;4.18;1.80;;;;;;;40.97;21.71;97865.78;4791403;29;20198;-88
2023/08/29 11:38:43;;;;;;;2.95;1.58;;;;;;;40.72;22.27;97860.00;4804952;29;20190;-88
2023/08/29 11:41:10;;;;;;;5.70;2.58;;;;;;;40.57;23.20;97857.56;4806510;29;20186;-89
2023/08/29 11:43:37;;;;;;;3.03;1.65;;;;;;;40.37;22.36;97865.03;4806656;29;20265;-90
2023/08/29 11:46:05;;;;;;;4.13;2.13;;;;;;;40.37;22.74;97864.22;4806388;29;20188;-88